createdAt,value
2022-08-07T00:00:53.344Z,4.63
2022-08-07T00:03:25.638Z,3.13
2022-08-07T00:05:54.769Z,3.33
2022-08-07T00:08:23.349Z,3.28
2022-08-07T00:10:57.538Z,3.72
2022-08-07T00:13:27.185Z,2.45
2022-08-07T00:15:56.191Z,2.85
2022-08-07T00:18:27.800Z,3.33
2022-08-07T00:23:34.855Z,3.47
2022-08-07T00:26:18.930Z,4.15
2022-08-07T00:28:56.645Z,3.10
2022-08-07T00:31:37.313Z,3.58
2022-08-07T00:34:08.655Z,3.53
2022-08-07T00:36:43.314Z,3.25
2022-08-07T00:39:16.553Z,4.03
2022-08-07T00:42:02.133Z,3.75
2022-08-07T00:44:35.252Z,4.95
2022-08-07T00:47:15.922Z,4.75
2022-08-07T00:50:19.826Z,3.92
2022-08-07T00:52:47.389Z,6.07
2022-08-07T00:55:17.410Z,2.97
2022-08-07T00:58:05.223Z,3.70
2022-08-07T01:00:33.823Z,3.53
2022-08-07T01:03:03.354Z,4.68
2022-08-07T01:05:32.614Z,3.22
2022-08-07T01:08:05.313Z,3.88
2022-08-07T01:10:39.280Z,3.33
2022-08-07T01:13:16.310Z,3.00
2022-08-07T01:16:05.712Z,3.30
2022-08-07T01:18:36.529Z,3.83
2022-08-07T01:21:22.836Z,5.13
2022-08-07T01:23:56.617Z,4.10
2022-08-07T01:26:25.998Z,3.47
2022-08-07T01:28:55.296Z,7.60
2022-08-07T01:31:42.897Z,3.92
2022-08-07T01:34:18.759Z,3.83
2022-08-07T01:36:52.917Z,4.35
2022-08-07T01:39:40.846Z,4.97
2022-08-07T01:42:38.493Z,3.03
2022-08-07T01:45:09.996Z,4.45
2022-08-07T01:48:18.893Z,3.83
2022-08-07T01:50:38.293Z,4.28
2022-08-07T01:53:21.050Z,4.35
2022-08-07T01:55:54.671Z,3.88
2022-08-07T01:58:29.950Z,3.50
2022-08-07T02:01:10.140Z,4.47
2022-08-07T02:04:07.445Z,3.38
2022-08-07T02:06:39.589Z,5.10
2022-08-07T02:09:12.058Z,3.65
2022-08-07T02:12:17.755Z,3.97
2022-08-07T02:14:53.903Z,4.18
2022-08-07T02:17:31.705Z,4.63
2022-08-07T02:20:10.086Z,4.28
2022-08-07T02:22:47.200Z,4.80
2022-08-07T02:26:10.261Z,5.07
2022-08-07T02:28:25.645Z,5.20
2022-08-07T02:30:57.560Z,3.95
2022-08-07T02:33:33.073Z,3.88
2022-08-07T02:36:29.968Z,5.03
2022-08-07T02:39:09.281Z,5.35
2022-08-07T02:41:50.648Z,6.18
2022-08-07T02:44:26.845Z,4.38
2022-08-07T02:47:01.557Z,7.00
2022-08-07T02:49:58.722Z,5.47
2022-08-07T02:52:31.936Z,4.65
2022-08-07T02:57:36.655Z,5.47
2022-08-07T03:00:10.415Z,4.80
2022-08-07T03:02:54.667Z,5.20
2022-08-07T03:05:24.771Z,4.78
2022-08-07T03:08:06.852Z,5.68
2022-08-07T03:10:46.321Z,5.75
2022-08-07T03:13:19.504Z,6.18
2022-08-07T03:15:56.227Z,6.05
2022-08-07T03:18:35.036Z,6.95
2022-08-07T03:21:08.467Z,9.05
2022-08-07T03:24:20.658Z,4.30
2022-08-07T03:26:33.745Z,6.22
2022-08-07T03:29:03.890Z,6.63
2022-08-07T03:31:43.170Z,6.93
2022-08-07T03:36:53.162Z,6.05
2022-08-07T03:39:46.447Z,6.93
2022-08-07T03:42:12.643Z,6.53
2022-08-07T03:44:41.930Z,5.38
2022-08-07T03:47:14.408Z,7.25
2022-08-07T03:49:47.975Z,8.00
2022-08-07T03:52:26.606Z,7.25
2022-08-07T03:55:07.490Z,7.20
2022-08-07T03:58:35.122Z,6.43
2022-08-07T04:00:30.180Z,5.68
2022-08-07T04:02:59.658Z,6.63
2022-08-07T04:05:40.541Z,6.15
2022-08-07T04:08:13.215Z,6.60
2022-08-07T04:10:54.059Z,5.65
2022-08-07T04:14:10.458Z,9.07
2022-08-07T04:16:30.819Z,8.10
2022-08-07T04:19:12.819Z,6.00
2022-08-07T04:21:58.760Z,8.30
2022-08-07T04:24:38.982Z,6.90
2022-08-07T04:27:15.080Z,8.35
2022-08-07T04:30:01.433Z,6.38
2022-08-07T04:32:34.673Z,5.30
2022-08-07T04:35:06.405Z,8.75
2022-08-07T04:38:00.951Z,6.88
2022-08-07T04:40:30.156Z,6.38
2022-08-07T04:43:03.580Z,5.93
2022-08-07T04:46:29.641Z,7.85
2022-08-07T04:49:30.491Z,6.68
2022-08-07T04:52:19.117Z,7.28
2022-08-07T04:55:15.635Z,6.10
2022-08-07T04:58:33.676Z,6.78
2022-08-07T05:01:18.179Z,6.82
2022-08-07T05:03:50.030Z,7.18
2022-08-07T05:06:51.553Z,5.75
2022-08-07T05:09:45.392Z,5.75
2022-08-07T05:12:26.810Z,7.28
2022-08-07T05:15:21.589Z,7.82
2022-08-07T05:17:58.249Z,7.10
2022-08-07T05:20:37.911Z,5.93
2022-08-07T05:23:15.748Z,7.18
2022-08-07T05:26:13.647Z,7.82
2022-08-07T05:28:36.577Z,7.38
2022-08-07T05:31:12.449Z,7.25
2022-08-07T05:34:01.318Z,7.75
2022-08-07T05:36:35.735Z,7.65
2022-08-07T05:42:02.555Z,6.25
2022-08-07T05:44:46.504Z,8.77
2022-08-07T05:47:38.135Z,7.78
2022-08-07T05:50:11.428Z,7.65
2022-08-07T05:52:40.539Z,7.38
2022-08-07T05:55:10.676Z,7.82
2022-08-07T05:57:41.988Z,7.75
2022-08-07T06:00:16.450Z,9.73
2022-08-07T06:02:50.401Z,8.70
2022-08-07T06:05:28.126Z,8.90
2022-08-07T06:08:13.791Z,8.90
2022-08-07T06:10:51.284Z,8.68
2022-08-07T06:14:11.624Z,7.30
2022-08-07T06:16:13.998Z,7.82
2022-08-07T06:18:51.518Z,8.77
2022-08-07T06:22:14.805Z,9.55
2022-08-07T06:24:39.144Z,7.35
2022-08-07T06:26:59.340Z,8.00
2022-08-07T06:29:33.922Z,9.50
2022-08-07T06:32:02.916Z,7.35
2022-08-07T06:34:33.024Z,7.32
2022-08-07T06:37:02.449Z,7.45
2022-08-07T06:40:15.988Z,7.82
2022-08-07T06:42:33.188Z,9.35
2022-08-07T06:45:17.905Z,7.82
2022-08-07T06:47:57.213Z,7.82
2022-08-07T06:50:27.449Z,7.90
2022-08-07T06:53:00.751Z,8.23
2022-08-07T06:55:53.706Z,8.02
2022-08-07T06:58:27.605Z,7.45
2022-08-07T07:00:58.572Z,7.57
2022-08-07T07:03:48.832Z,7.88
2022-08-07T07:06:23.898Z,7.35
2022-08-07T07:08:54.917Z,9.13
2022-08-07T07:12:08.553Z,7.75
2022-08-07T07:14:16.254Z,7.60
2022-08-07T07:16:51.011Z,6.88
2022-08-07T07:19:57.877Z,7.30
2022-08-07T07:22:36.971Z,8.82
2022-08-07T07:26:33.381Z,6.55
2022-08-07T07:28:42.753Z,5.43
2022-08-07T07:31:04.699Z,8.18
2022-08-07T07:33:36.280Z,7.35
2022-08-07T07:36:12.742Z,5.78
2022-08-07T07:38:43.541Z,7.07
2022-08-07T07:41:17.699Z,7.65
2022-08-07T07:44:17.856Z,7.55
2022-08-07T07:50:33.338Z,5.22
2022-08-07T07:52:21.834Z,6.95
2022-08-07T07:54:54.868Z,6.68
2022-08-07T07:57:29.092Z,5.28
2022-08-07T08:00:21.114Z,5.35
2022-08-07T08:03:05.373Z,7.35
2022-08-07T08:05:53.615Z,6.78
2022-08-07T08:08:35.206Z,7.40
2022-08-07T08:11:08.472Z,5.28
2022-08-07T08:13:54.189Z,5.30
2022-08-07T08:16:35.165Z,5.63
2022-08-07T08:19:17.393Z,5.07
2022-08-07T08:22:17.043Z,5.78
2022-08-07T08:25:24.737Z,5.07
2022-08-07T08:28:01.839Z,5.32
2022-08-07T08:30:35.092Z,4.57
2022-08-07T08:33:17.010Z,6.13
2022-08-07T08:35:51.762Z,5.63
2022-08-07T08:38:29.617Z,5.80
2022-08-07T08:41:18.646Z,6.28
2022-08-07T08:43:58.638Z,4.47
2022-08-07T08:46:54.752Z,5.65
2022-08-07T08:49:46.739Z,4.25
2022-08-07T08:52:36.055Z,5.28
2022-08-07T08:55:55.428Z,5.95
2022-08-07T08:58:39.683Z,6.55
2022-08-07T09:01:18.419Z,6.15
2022-08-07T09:04:26.118Z,7.60
2022-08-07T09:07:27.052Z,7.00
2022-08-07T09:10:03.637Z,4.00
2022-08-07T09:12:38.082Z,5.50
2022-08-07T09:16:22.936Z,5.20
2022-08-07T09:18:52.984Z,5.35
2022-08-07T09:21:58.265Z,4.45
2022-08-07T09:24:59.015Z,5.68
2022-08-07T09:27:59.660Z,5.45
2022-08-07T09:30:59.796Z,4.47
2022-08-07T09:33:56.637Z,4.57
2022-08-07T09:37:08.065Z,4.72
2022-08-07T09:39:57.991Z,6.18
2022-08-07T09:43:18.753Z,5.35
2022-08-07T09:47:24.790Z,3.05
2022-08-07T09:50:00.731Z,3.80
2022-08-07T09:52:34.943Z,4.43
2022-08-07T09:55:29.713Z,5.95
2022-08-07T09:58:42.300Z,3.75
2022-08-07T10:01:52.122Z,5.38
2022-08-07T10:04:46.186Z,5.40
2022-08-07T10:07:53.632Z,3.03
2022-08-07T10:14:00.437Z,3.20
2022-08-07T10:16:38.177Z,4.07
2022-08-07T10:19:38.850Z,4.05
2022-08-07T10:22:33.653Z,5.72
2022-08-07T10:25:22.892Z,5.43
2022-08-07T10:28:09.552Z,4.15
2022-08-07T10:31:06.026Z,4.40
2022-08-07T10:34:15.750Z,3.63
2022-08-07T10:37:12.326Z,4.32
2022-08-07T10:40:03.322Z,4.53
2022-08-07T10:42:40.070Z,2.90
2022-08-07T10:45:45.198Z,3.78
2022-08-07T10:48:35.540Z,3.78
2022-08-07T10:51:16.855Z,3.58
2022-08-07T10:54:20.035Z,3.17
2022-08-07T10:57:34.588Z,3.28
2022-08-07T11:00:39.271Z,3.55
2022-08-07T11:03:54.833Z,4.25
2022-08-07T11:06:47.824Z,4.07
2022-08-07T11:10:10.665Z,3.47
2022-08-07T11:12:32.552Z,4.50
2022-08-07T11:15:17.239Z,3.95
2022-08-07T11:17:46.149Z,3.30
2022-08-07T11:20:24.378Z,4.00
2022-08-07T11:23:20.516Z,3.40
2022-08-07T11:26:05.974Z,3.28
2022-08-07T11:28:55.637Z,4.03
2022-08-07T11:31:53.639Z,4.30
2022-08-07T11:34:34.453Z,3.13
2022-08-07T11:37:38.428Z,4.78
2022-08-07T11:40:49.453Z,4.13
2022-08-07T11:43:29.738Z,3.92
2022-08-07T11:46:33.611Z,5.85
2022-08-07T11:49:51.539Z,3.97
2022-08-07T11:52:56.623Z,3.45
2022-08-07T11:56:25.274Z,3.38
2022-08-07T11:58:42.267Z,4.63
2022-08-07T12:01:59.549Z,3.00
2022-08-07T12:04:42.951Z,3.53
2022-08-07T12:07:38.709Z,3.97
2022-08-07T12:10:18.163Z,3.53
2022-08-07T12:12:55.096Z,3.53
2022-08-07T12:15:35.801Z,2.50
2022-08-07T12:18:29.651Z,2.70
2022-08-07T12:21:55.869Z,3.33
2022-08-07T12:24:27.496Z,3.70
2022-08-07T12:27:16.747Z,3.67
2022-08-07T12:30:08.921Z,3.28
2022-08-07T12:32:53.844Z,4.38
2022-08-07T12:35:26.618Z,2.83
2022-08-07T12:38:09.467Z,3.33
2022-08-07T12:40:47.129Z,3.38
2022-08-07T12:44:03.525Z,2.58
2022-08-07T12:46:12.136Z,3.92
2022-08-07T12:49:25.617Z,4.50
2022-08-07T12:52:17.983Z,2.97
2022-08-07T12:55:03.769Z,2.73
2022-08-07T12:57:50.899Z,3.97
2022-08-07T13:00:54.294Z,4.28
2022-08-07T13:03:54.826Z,3.63
2022-08-07T13:06:54.242Z,4.78
2022-08-07T13:10:21.994Z,4.50
2022-08-07T13:12:56.446Z,2.53
2022-08-07T13:15:59.286Z,3.13
2022-08-07T13:18:55.382Z,3.75
2022-08-07T13:21:50.303Z,3.47
2022-08-07T13:24:29.264Z,2.42
2022-08-07T13:27:03.203Z,2.65
2022-08-07T13:29:48.236Z,2.88
2022-08-07T13:32:32.012Z,3.17
2022-08-07T13:35:59.547Z,3.08
2022-08-07T13:38:30.990Z,2.97
2022-08-07T13:41:16.683Z,3.30
2022-08-07T13:43:52.783Z,1.55
2022-08-07T13:46:33.767Z,2.58
2022-08-07T13:49:08.758Z,2.40
2022-08-07T13:52:22.960Z,2.90
2022-08-07T13:54:49.331Z,2.30
2022-08-07T13:57:25.196Z,2.90
2022-08-07T13:59:57.649Z,2.60
2022-08-07T14:02:39.497Z,2.45
2022-08-07T14:05:23.002Z,2.80
2022-08-07T14:08:00.769Z,3.92
2022-08-07T14:10:42.398Z,2.25
2022-08-07T14:13:19.057Z,2.78
2022-08-07T14:16:01.806Z,3.22
2022-08-07T14:18:45.895Z,3.28
2022-08-07T14:22:01.513Z,3.90
2022-08-07T14:24:28.070Z,2.72
2022-08-07T14:27:16.142Z,2.22
2022-08-07T14:30:05.269Z,3.30
2022-08-07T14:32:42.950Z,3.03
2022-08-07T14:35:45.827Z,3.03
2022-08-07T14:38:09.232Z,3.70
2022-08-07T14:40:58.594Z,3.22
2022-08-07T14:43:57.321Z,2.42
2022-08-07T14:46:30.658Z,2.70
2022-08-07T14:49:55.991Z,2.63
2022-08-07T14:52:03.929Z,3.33
2022-08-07T14:54:41.939Z,2.55
2022-08-07T14:57:19.136Z,3.13
2022-08-07T15:00:05.439Z,3.00
2022-08-07T15:02:39.234Z,2.40
2022-08-07T15:05:20.541Z,2.10
2022-08-07T15:07:52.700Z,2.15
2022-08-07T15:10:29.693Z,2.28
2022-08-07T15:13:06.380Z,2.95
2022-08-07T15:18:41.589Z,2.10
2022-08-07T15:21:44.011Z,2.08
2022-08-07T15:25:15.570Z,2.85
2022-08-07T15:27:22.133Z,1.70
2022-08-07T15:30:09.030Z,2.30
2022-08-07T15:33:03.675Z,2.95
2022-08-07T15:36:01.630Z,2.30
2022-08-07T15:38:30.909Z,2.17
2022-08-07T15:41:24.310Z,2.22
2022-08-07T15:44:10.934Z,2.85
2022-08-07T15:46:52.059Z,3.20
2022-08-07T15:52:30.161Z,3.97
2022-08-07T15:55:03.634Z,1.95
2022-08-07T15:57:48.228Z,1.98
2022-08-07T16:00:31.433Z,2.38
2022-08-07T16:03:47.233Z,2.50
2022-08-07T16:06:16.532Z,2.30
2022-08-07T16:08:47.321Z,2.95
2022-08-07T16:11:49.032Z,1.90
2022-08-07T16:14:36.984Z,3.08
2022-08-07T16:18:02.952Z,2.22
2022-08-07T16:20:33.034Z,2.03
2022-08-07T16:23:53.820Z,2.10
2022-08-07T16:26:30.828Z,2.17
2022-08-07T16:30:09.892Z,3.17
2022-08-07T16:32:35.158Z,2.60
2022-08-07T16:35:52.006Z,2.20
2022-08-07T16:39:00.014Z,2.08
2022-08-07T16:41:57.717Z,1.85
2022-08-07T16:46:21.213Z,2.67
2022-08-07T16:48:30.053Z,1.73
2022-08-07T16:51:57.842Z,1.65
2022-08-07T16:54:38.498Z,2.40
2022-08-07T16:58:03.041Z,2.95
2022-08-07T17:00:54.710Z,2.45
2022-08-07T17:03:59.912Z,2.25
2022-08-07T17:06:45.904Z,2.95
2022-08-07T17:10:05.255Z,3.65
2022-08-07T17:12:52.976Z,2.85
2022-08-07T17:16:05.662Z,2.22
2022-08-07T17:18:46.073Z,2.38
2022-08-07T17:21:23.572Z,2.75
2022-08-07T17:23:57.845Z,2.42
2022-08-07T17:26:51.079Z,2.15
2022-08-07T17:30:15.416Z,2.45
2022-08-07T17:32:52.874Z,3.85
2022-08-07T17:35:50.579Z,2.95
2022-08-07T17:38:34.372Z,2.88
2022-08-07T17:42:02.066Z,4.78
2022-08-07T17:44:34.014Z,3.70
2022-08-07T17:47:16.638Z,4.10
2022-08-07T17:50:21.328Z,4.28
2022-08-07T17:52:58.920Z,4.07
2022-08-07T17:56:00.999Z,4.25
2022-08-07T17:58:35.506Z,5.90
2022-08-07T18:01:21.593Z,3.65
2022-08-07T18:04:16.274Z,3.33
2022-08-07T18:07:20.881Z,3.90
2022-08-07T18:10:06.092Z,3.67
2022-08-07T18:13:01.431Z,3.97
2022-08-07T18:15:38.593Z,3.15
2022-08-07T18:18:45.627Z,3.33
2022-08-07T18:21:37.233Z,3.55
2022-08-07T18:24:34.329Z,3.53
2022-08-07T18:27:06.354Z,3.60
2022-08-07T18:30:05.572Z,3.30
2022-08-07T18:32:56.320Z,4.45
2022-08-07T18:35:57.325Z,3.88
2022-08-07T18:39:00.037Z,3.92
2022-08-07T18:42:04.186Z,3.53
2022-08-07T18:45:39.730Z,3.33
2022-08-07T18:50:04.999Z,3.55
2022-08-07T18:52:35.152Z,3.50
2022-08-07T18:54:51.645Z,3.13
2022-08-07T18:57:58.298Z,3.53
2022-08-07T19:01:00.917Z,3.17
2022-08-07T19:03:55.586Z,3.65
2022-08-07T19:06:49.591Z,3.42
2022-08-07T19:09:56.322Z,5.05
2022-08-07T19:12:26.256Z,3.40
2022-08-07T19:16:03.431Z,4.18
2022-08-07T19:18:18.288Z,3.55
2022-08-07T19:21:46.478Z,3.00
2022-08-07T19:24:30.770Z,4.68
2022-08-07T19:28:30.837Z,3.30
2022-08-07T19:31:01.319Z,3.85
2022-08-07T19:32:53.078Z,4.03
2022-08-07T19:35:33.314Z,4.65
2022-08-07T19:38:15.746Z,3.97
2022-08-07T19:40:49.924Z,3.88
2022-08-07T19:43:50.051Z,5.25
2022-08-07T19:46:18.903Z,4.63
2022-08-07T19:48:54.143Z,3.40
2022-08-07T19:51:52.680Z,4.03
2022-08-07T19:54:32.758Z,4.88
2022-08-07T19:58:01.760Z,4.20
2022-08-07T20:00:29.174Z,3.22
2022-08-07T20:03:06.024Z,5.40
2022-08-07T20:06:00.674Z,3.45
2022-08-07T20:08:34.236Z,5.05
2022-08-07T20:11:10.098Z,4.05
2022-08-07T20:13:47.628Z,4.38
2022-08-07T20:16:32.264Z,4.78
2022-08-07T20:19:10.167Z,3.03
2022-08-07T20:21:47.463Z,2.58
2022-08-07T20:24:21.995Z,4.25
2022-08-07T20:26:59.088Z,4.28
2022-08-07T20:29:48.402Z,4.35
2022-08-07T20:32:27.944Z,4.40
2022-08-07T20:35:26.183Z,3.47
2022-08-07T20:37:59.713Z,3.65
2022-08-07T20:40:34.601Z,3.97
2022-08-07T20:43:14.470Z,5.05
2022-08-07T20:46:27.637Z,4.10
2022-08-07T20:49:54.119Z,5.72
2022-08-07T20:51:36.144Z,4.82
2022-08-07T20:54:12.160Z,4.97
2022-08-07T20:56:49.927Z,5.55
2022-08-07T21:00:04.219Z,3.40
2022-08-07T21:02:39.441Z,3.28
2022-08-07T21:05:16.323Z,4.10
2022-08-07T21:07:49.930Z,4.22
2022-08-07T21:10:25.179Z,4.63
2022-08-07T21:13:02.440Z,3.72
2022-08-07T21:15:47.974Z,4.43
2022-08-07T21:18:29.410Z,5.00
2022-08-07T21:20:59.996Z,4.32
2022-08-07T21:23:50.824Z,3.42
2022-08-07T21:26:31.007Z,6.78
2022-08-07T21:29:12.870Z,4.95
2022-08-07T21:32:47.799Z,12.77
2022-08-07T21:37:57.924Z,4.47
2022-08-07T21:40:38.832Z,5.25
2022-08-07T21:43:13.155Z,3.92
2022-08-07T21:46:31.291Z,3.60
2022-08-07T21:49:16.441Z,5.35
2022-08-07T21:52:11.433Z,4.15
2022-08-07T21:54:46.200Z,4.93
2022-08-07T21:57:39.510Z,4.53
2022-08-07T22:00:22.298Z,5.65
2022-08-07T22:03:31.618Z,5.22
2022-08-07T22:06:03.723Z,5.93
2022-08-07T22:08:56.796Z,4.43
2022-08-07T22:11:30.769Z,4.35
2022-08-07T22:14:23.781Z,5.35
2022-08-07T22:17:04.980Z,4.13
2022-08-07T22:19:44.993Z,4.00
2022-08-07T22:22:27.686Z,3.72
2022-08-07T22:25:12.019Z,4.50
2022-08-07T22:28:07.373Z,5.38
2022-08-07T22:31:31.389Z,4.05
2022-08-07T22:34:12.835Z,6.07
2022-08-07T22:37:14.166Z,4.80
2022-08-07T22:39:53.130Z,6.63
2022-08-07T22:42:30.478Z,6.13
2022-08-07T22:45:03.755Z,6.43
2022-08-07T22:48:13.960Z,5.00
2022-08-07T22:51:09.358Z,5.43
2022-08-07T22:54:08.401Z,4.47
2022-08-07T22:57:16.950Z,5.70
2022-08-07T22:59:51.206Z,5.70
2022-08-07T23:02:46.959Z,5.72
2022-08-07T23:06:08.767Z,4.85
2022-08-07T23:08:34.092Z,7.57
2022-08-07T23:11:35.093Z,7.13
2022-08-07T23:14:25.524Z,5.30
2022-08-07T23:17:08.595Z,6.93
2022-08-07T23:20:51.101Z,6.55
2022-08-07T23:24:06.427Z,6.32
2022-08-07T23:26:25.054Z,5.90
2022-08-07T23:29:43.597Z,7.18
2022-08-07T23:34:36.887Z,5.60
2022-08-07T23:35:47.052Z,5.95
2022-08-07T23:38:37.017Z,6.28
2022-08-07T23:41:33.038Z,8.13
2022-08-07T23:44:29.968Z,6.55
2022-08-07T23:47:46.442Z,5.82
2022-08-07T23:50:42.529Z,7.20
2022-08-07T23:53:51.935Z,5.30
2022-08-07T23:56:53.464Z,5.97
